createdAt,value
2023-02-15T00:02:04.765Z,9.00
2023-02-15T00:06:09.504Z,9.43
2023-02-15T00:10:13.148Z,9.90
2023-02-15T00:14:18.302Z,9.68
2023-02-15T00:18:21.211Z,9.23
2023-02-15T00:22:25.586Z,9.38
2023-02-15T00:26:29.327Z,9.63
2023-02-15T00:30:34.038Z,8.95
2023-02-15T00:34:37.599Z,9.52
2023-02-15T00:38:42.193Z,9.60
2023-02-15T00:42:45.174Z,9.93
2023-02-15T00:46:48.268Z,9.90
2023-02-15T00:50:52.699Z,8.95
2023-02-15T00:54:57.713Z,9.00
2023-02-15T00:59:00.714Z,10.40
2023-02-15T01:03:03.802Z,8.40
2023-02-15T01:07:06.938Z,9.20
2023-02-15T01:11:13.616Z,9.30
2023-02-15T01:15:16.591Z,9.25
2023-02-15T01:19:19.608Z,8.38
2023-02-15T01:23:22.882Z,9.55
2023-02-15T01:27:27.293Z,9.57
2023-02-15T01:31:30.338Z,9.52
2023-02-15T01:35:33.778Z,8.48
2023-02-15T01:39:36.708Z,9.13
2023-02-15T01:43:46.827Z,9.13
2023-02-15T01:47:54.950Z,8.73
2023-02-15T01:52:00.053Z,8.98
2023-02-15T01:56:07.521Z,9.05
2023-02-15T02:00:13.212Z,8.10
2023-02-15T02:04:20.884Z,7.35
2023-02-15T02:08:24.225Z,8.27
2023-02-15T02:12:27.911Z,8.13
2023-02-15T02:16:41.840Z,8.40
2023-02-15T02:21:27.994Z,8.27
2023-02-15T02:26:01.732Z,8.77
2023-02-15T02:30:29.808Z,6.85
2023-02-15T02:34:40.659Z,7.35
2023-02-15T02:38:55.227Z,7.10
2023-02-15T02:43:03.978Z,7.40
2023-02-15T02:47:13.021Z,7.22
2023-02-15T02:51:22.423Z,7.97
2023-02-15T02:55:32.244Z,7.28
2023-02-15T02:59:41.616Z,7.05
2023-02-15T03:03:49.184Z,7.07
2023-02-15T03:07:55.723Z,6.60
2023-02-15T03:11:59.252Z,8.18
2023-02-15T03:16:21.300Z,7.85
2023-02-15T03:20:29.395Z,7.35
2023-02-15T03:24:37.209Z,5.93
2023-02-15T03:28:45.997Z,7.32
2023-02-15T03:32:50.795Z,6.70
2023-02-15T03:37:00.104Z,7.57
2023-02-15T03:41:12.691Z,7.35
2023-02-15T03:45:19.803Z,7.53
2023-02-15T03:49:26.556Z,7.88
2023-02-15T03:53:29.750Z,7.38
2023-02-15T03:57:56.292Z,7.38
2023-02-15T04:02:13.493Z,7.53
2023-02-15T04:06:16.619Z,7.07
2023-02-15T04:10:37.208Z,6.80
2023-02-15T04:14:59.515Z,7.80
2023-02-15T04:19:19.862Z,7.80
2023-02-15T04:23:40.189Z,8.55
2023-02-15T04:27:44.830Z,7.85
2023-02-15T04:31:49.831Z,7.30
2023-02-15T04:35:52.847Z,7.68
2023-02-15T04:39:55.928Z,7.70
2023-02-15T04:43:58.844Z,6.82
2023-02-15T04:48:03.217Z,8.00
2023-02-15T04:52:06.346Z,7.32
2023-02-15T04:56:09.560Z,7.50
2023-02-15T05:00:13.210Z,7.15
2023-02-15T05:04:18.079Z,7.82
2023-02-15T05:08:21.049Z,7.57
2023-02-15T05:12:24.084Z,7.50
2023-02-15T05:16:28.701Z,7.25
2023-02-15T05:20:33.272Z,7.82
2023-02-15T05:24:53.914Z,6.72
2023-02-15T05:28:56.910Z,8.32
2023-02-15T05:32:59.844Z,7.82
2023-02-15T05:37:04.259Z,7.00
2023-02-15T05:41:07.410Z,7.13
2023-02-15T05:45:10.822Z,7.07
2023-02-15T05:49:13.859Z,7.32
2023-02-15T05:53:18.223Z,7.35
2023-02-15T05:57:21.283Z,7.40
2023-02-15T06:01:24.580Z,7.97
2023-02-15T06:05:27.819Z,7.03
2023-02-15T06:09:32.244Z,7.38
2023-02-15T06:13:38.531Z,7.57
2023-02-15T06:17:43.482Z,7.65
2023-02-15T06:21:46.547Z,7.70
2023-02-15T06:25:50.981Z,7.30
2023-02-15T06:29:53.928Z,6.80
2023-02-15T06:34:01.908Z,6.57
2023-02-15T06:38:04.872Z,7.68
2023-02-15T06:42:09.253Z,7.35
2023-02-15T06:46:12.212Z,7.10
2023-02-15T06:50:15.265Z,7.45
2023-02-15T06:54:18.269Z,6.53
2023-02-15T06:58:22.685Z,7.47
2023-02-15T07:02:25.795Z,7.93
2023-02-15T07:06:33.339Z,7.72
2023-02-15T07:10:36.260Z,9.07
2023-02-15T07:14:41.583Z,8.13
2023-02-15T07:18:44.671Z,8.57
2023-02-15T07:22:48.084Z,8.18
2023-02-15T07:26:51.031Z,9.70
2023-02-15T07:30:55.700Z,9.73
2023-02-15T07:34:59.386Z,10.18
2023-02-15T07:39:02.423Z,11.63
2023-02-15T07:43:05.497Z,10.52
2023-02-15T07:47:09.887Z,10.77
2023-02-15T07:51:15.381Z,10.88
2023-02-15T07:55:19.553Z,10.13
2023-02-15T07:59:22.541Z,10.70
2023-02-15T08:03:28.081Z,10.55
2023-02-15T08:07:31.243Z,9.80
2023-02-15T08:11:37.534Z,10.63
2023-02-15T08:15:40.499Z,10.38
2023-02-15T08:19:45.066Z,10.13
2023-02-15T08:23:48.569Z,9.95
2023-02-15T08:27:51.767Z,10.10
2023-02-15T08:31:56.617Z,10.15
2023-02-15T08:36:04.900Z,9.63
2023-02-15T08:40:09.153Z,10.07
2023-02-15T08:44:12.774Z,10.25
2023-02-15T08:48:15.760Z,10.27
2023-02-15T08:52:20.143Z,10.63
2023-02-15T08:56:25.706Z,10.13
2023-02-15T09:00:29.380Z,10.73
2023-02-15T09:04:32.586Z,10.30
2023-02-15T09:08:37.653Z,9.07
2023-02-15T09:12:40.697Z,9.63
2023-02-15T09:16:47.375Z,9.80
2023-02-15T09:20:50.422Z,10.00
2023-02-15T09:24:54.956Z,9.65
2023-02-15T09:28:59.861Z,9.30
2023-02-15T09:33:03.067Z,10.07
2023-02-15T09:37:07.481Z,9.80
2023-02-15T09:41:28.531Z,10.50
2023-02-15T09:45:43.307Z,11.30
2023-02-15T09:49:52.860Z,9.63
2023-02-15T09:54:12.351Z,9.40
2023-02-15T09:58:22.432Z,10.07
2023-02-15T10:02:40.738Z,9.75
2023-02-15T10:06:57.879Z,10.57
2023-02-15T10:11:25.075Z,10.38
2023-02-15T10:15:45.010Z,10.43
2023-02-15T10:20:06.534Z,10.38
2023-02-15T10:24:40.536Z,9.75
2023-02-15T10:28:48.917Z,8.93
2023-02-15T10:33:01.655Z,9.45
2023-02-15T10:37:41.296Z,10.43
2023-02-15T10:41:54.133Z,9.60
2023-02-15T10:46:05.012Z,10.70
2023-02-15T10:50:40.343Z,9.07
2023-02-15T10:54:50.999Z,9.70
2023-02-15T10:59:09.112Z,9.70
2023-02-15T11:03:34.685Z,9.25
2023-02-15T11:07:42.852Z,9.52
2023-02-15T11:11:51.439Z,9.57
2023-02-15T11:15:58.426Z,8.93
2023-02-15T11:20:09.986Z,10.32
2023-02-15T11:24:14.792Z,9.60
2023-02-15T11:28:26.989Z,9.07
2023-02-15T11:32:32.824Z,9.48
2023-02-15T11:36:40.096Z,10.27
2023-02-15T11:40:48.401Z,9.55
2023-02-15T11:45:00.958Z,9.70
2023-02-15T11:49:04.046Z,9.93
2023-02-15T11:53:13.321Z,9.63
2023-02-15T11:57:21.304Z,9.25
2023-02-15T12:01:33.927Z,10.23
2023-02-15T12:05:41.407Z,9.65
2023-02-15T12:09:50.282Z,9.50
2023-02-15T12:13:58.350Z,9.63
2023-02-15T12:18:02.902Z,9.40
2023-02-15T12:22:10.343Z,9.50
2023-02-15T12:26:14.870Z,10.13
2023-02-15T12:30:24.244Z,9.85
2023-02-15T12:34:32.326Z,10.82
2023-02-15T12:38:36.776Z,10.13
2023-02-15T12:42:45.408Z,10.23
2023-02-15T12:47:00.096Z,10.77
2023-02-15T12:51:11.670Z,10.38
2023-02-15T12:55:23.940Z,9.73
2023-02-15T12:59:27.593Z,10.68
2023-02-15T13:03:30.687Z,10.30
2023-02-15T13:07:35.275Z,10.05
2023-02-15T13:11:39.264Z,9.75
2023-02-15T13:15:46.604Z,9.77
2023-02-15T13:19:52.820Z,10.32
2023-02-15T13:24:02.167Z,10.65
2023-02-15T13:28:07.232Z,9.90
2023-02-15T13:32:23.642Z,9.65
2023-02-15T13:36:33.931Z,10.15
2023-02-15T13:40:46.220Z,10.25
2023-02-15T13:45:12.526Z,10.10
2023-02-15T13:49:26.328Z,9.30
2023-02-15T13:53:53.047Z,9.73
2023-02-15T13:58:37.843Z,10.10
2023-02-15T14:03:02.800Z,9.23
2023-02-15T14:07:26.125Z,9.52
2023-02-15T14:11:37.546Z,9.77
2023-02-15T14:15:46.715Z,9.48
2023-02-15T14:19:56.676Z,10.18
2023-02-15T14:24:14.597Z,9.75
2023-02-15T14:28:22.987Z,11.20
2023-02-15T14:32:33.583Z,10.07
2023-02-15T14:36:38.147Z,10.50
2023-02-15T14:41:03.384Z,9.93
2023-02-15T14:45:19.228Z,11.27
2023-02-15T14:49:25.148Z,10.32
2023-02-15T14:53:47.149Z,11.02
2023-02-15T14:58:00.568Z,11.10
2023-02-15T15:02:14.112Z,10.82
2023-02-15T15:06:27.721Z,10.63
2023-02-15T15:10:44.415Z,10.93
2023-02-15T15:14:47.338Z,11.27
2023-02-15T15:18:51.266Z,10.05
2023-02-15T15:23:34.712Z,11.25
2023-02-15T15:27:47.003Z,10.80
2023-02-15T15:31:57.199Z,10.90
2023-02-15T15:36:19.575Z,11.27
2023-02-15T15:40:50.452Z,11.27
2023-02-15T15:45:36.207Z,11.57
2023-02-15T15:49:40.730Z,11.48
2023-02-15T15:53:49.974Z,11.13
2023-02-15T15:57:55.624Z,11.20
2023-02-15T16:02:06.422Z,10.30
2023-02-15T16:06:15.789Z,11.18
2023-02-15T16:10:24.519Z,10.65
2023-02-15T16:14:30.986Z,10.48
2023-02-15T16:18:39.867Z,10.20
2023-02-15T16:22:43.120Z,11.15
2023-02-15T16:27:17.583Z,10.88
2023-02-15T16:31:23.189Z,10.80
2023-02-15T16:35:28.265Z,11.57
2023-02-15T16:39:35.070Z,10.02
2023-02-15T16:43:39.700Z,11.27
2023-02-15T16:47:47.989Z,10.20
2023-02-15T16:52:01.183Z,10.82
2023-02-15T16:56:07.321Z,10.85
2023-02-15T17:00:21.777Z,11.20
2023-02-15T17:04:33.223Z,12.30
2023-02-15T17:08:44.712Z,12.07
2023-02-15T17:12:49.707Z,11.10
2023-02-15T17:16:57.410Z,10.65
2023-02-15T17:21:03.834Z,11.82
2023-02-15T17:25:08.673Z,12.48
2023-02-15T17:29:21.658Z,11.23
2023-02-15T17:33:30.102Z,12.20
2023-02-15T17:37:44.454Z,12.30
2023-02-15T17:41:48.958Z,12.02
2023-02-15T17:45:53.304Z,11.85
2023-02-15T17:49:56.549Z,12.05
2023-02-15T17:54:16.711Z,12.07
2023-02-15T17:58:22.479Z,11.88
2023-02-15T18:02:43.148Z,11.85
2023-02-15T18:07:03.900Z,12.20
2023-02-15T18:11:24.134Z,12.45
2023-02-15T18:15:28.799Z,11.90
2023-02-15T18:19:32.780Z,13.05
2023-02-15T18:23:35.811Z,12.45
2023-02-15T18:27:38.735Z,13.00
2023-02-15T18:31:44.251Z,12.63
2023-02-15T18:35:49.240Z,13.07
2023-02-15T18:39:54.376Z,13.48
2023-02-15T18:43:57.504Z,13.65
2023-02-15T18:48:02.208Z,13.30
2023-02-15T18:52:05.487Z,13.18
2023-02-15T18:56:13.940Z,13.55
2023-02-15T19:00:19.385Z,12.77
2023-02-15T19:04:25.801Z,13.68
2023-02-15T19:08:29.516Z,14.70
2023-02-15T19:12:32.939Z,15.13
2023-02-15T19:16:37.708Z,14.05
2023-02-15T19:20:45.106Z,13.55
2023-02-15T19:24:49.057Z,12.98
2023-02-15T19:28:52.327Z,12.95
2023-02-15T19:32:55.509Z,14.00
2023-02-15T19:37:00.440Z,14.80
2023-02-15T19:41:07.379Z,14.77
2023-02-15T19:45:15.512Z,14.70
2023-02-15T19:49:18.727Z,13.63
2023-02-15T19:53:25.809Z,13.23
2023-02-15T19:57:29.050Z,13.17
2023-02-15T20:01:32.098Z,13.93
2023-02-15T20:05:38.376Z,14.35
2023-02-15T20:09:43.653Z,14.33
2023-02-15T20:13:47.645Z,14.73
2023-02-15T20:17:51.278Z,15.43
2023-02-15T20:21:55.028Z,15.50
2023-02-15T20:26:02.263Z,15.60
2023-02-15T20:30:08.336Z,14.63
2023-02-15T20:34:11.900Z,15.50
2023-02-15T20:38:20.465Z,13.47
2023-02-15T20:42:24.880Z,14.50
2023-02-15T20:46:28.027Z,14.03
2023-02-15T20:50:33.690Z,12.30
2023-02-15T20:54:38.050Z,14.20
2023-02-15T20:58:42.524Z,14.30
2023-02-15T21:02:46.751Z,14.18
2023-02-15T21:06:49.884Z,14.60
2023-02-15T21:10:54.568Z,14.40
2023-02-15T21:14:59.246Z,13.27
2023-02-15T21:19:02.174Z,15.30
2023-02-15T21:23:07.137Z,14.73
2023-02-15T21:27:14.370Z,14.47
2023-02-15T21:31:20.703Z,13.87
2023-02-15T21:35:24.225Z,14.30
2023-02-15T21:39:30.714Z,14.90
2023-02-15T21:43:51.077Z,15.77
2023-02-15T21:47:55.503Z,14.40
2023-02-15T21:52:14.287Z,14.93
2023-02-15T21:56:19.554Z,14.47
2023-02-15T22:00:24.624Z,15.27
2023-02-15T22:04:31.172Z,15.53
2023-02-15T22:08:35.199Z,14.33
2023-02-15T22:12:38.936Z,13.87
2023-02-15T22:16:42.134Z,14.53
2023-02-15T22:20:46.626Z,14.87
2023-02-15T22:24:49.557Z,15.13
2023-02-15T22:28:52.835Z,15.23
2023-02-15T22:32:57.716Z,14.63
2023-02-15T22:37:03.263Z,15.60
2023-02-15T22:41:06.652Z,16.03
2023-02-15T22:45:16.925Z,15.60
2023-02-15T22:49:20.196Z,14.60
2023-02-15T22:53:24.679Z,15.07
2023-02-15T22:57:32.063Z,16.43
2023-02-15T23:01:36.993Z,16.23
2023-02-15T23:05:40.017Z,16.20
2023-02-15T23:09:44.779Z,15.50
2023-02-15T23:13:49.747Z,15.60
2023-02-15T23:17:52.981Z,15.40
2023-02-15T23:21:56.063Z,14.67
2023-02-15T23:26:03.150Z,15.90
2023-02-15T23:30:14.284Z,15.97
2023-02-15T23:34:20.945Z,15.43
2023-02-15T23:38:27.335Z,15.10
2023-02-15T23:42:34.643Z,14.30
2023-02-15T23:46:42.620Z,15.07
2023-02-15T23:50:45.725Z,15.20
2023-02-15T23:54:48.647Z,16.37
2023-02-15T23:58:53.096Z,15.53
